Aérodrome :
LOGIN :

S'inscrire | Disclaimer

   EN    FR    IT 

 










Légende :    VFR   VFR Marginal   IFR   IFR Intensif   IFR Très Intensif
Visi : 
Plafond : 
>= 8 km
>= 3000ft
5 à 8 km
1000 à 3000 ft
1500m à 5 km
500 à 1000 ft
800 à 1500m
200 à 500 ft
< 800m
< 200 ft
Symboles :   Orages  Brouillard  Fortes neiges  Fortes précipitations  Vent > 20 kt
SIGMETs :   Divers  Orages  Givrage  Turbulence  Onde Orograph.  Cendres Volcan.







- Altitude de l'aérodrome : 425 ft
- Code IATA : DTM


EDLW - Dortmund

DERNIER METAR :
  • 161520Z 24011KT 220V280 9999 VCSH SCT035 SCT046 03/00 Q0993

METARs EXPIRÉS :
  • 161450Z 25016KT 230V290 9999 VCSH FEW006 SCT009 BKN041 03/00 Q0993
  • 161420Z 28012KT 240V340 6000 -SHRA BKN015 BKN021 04/00 Q0993
  • 161350Z 25014KT 9999 FEW018 BKN022 BKN033 04/00 Q0992
  • 161320Z 25012G24KT 220V280 9999 BKN018 04/01 Q0992
  • 161250Z 25013G24KT 9999 BKN019 04/01 Q0992

TAF TAF EDLW
Valide du 16 à 12h jusqu'au 17 à 12h UTC


161100Z 1612/1712 25015KT 9999 BKN020
TEMPO 1612/1618 27020G35KT 4000 SHRA BKN012CB
PROB40
TEMPO 1612/1618 1500 TSRASN BKN008CB
TEMPO 1618/1706 27020G30KT 2000 SHSNRA BKN005 BKN015CB
PROB30
TEMPO 1618/1702 TSSNRA
Pas de NOTAMs connus pour ce terrain.
1 SIGMET publié pour la FIR Langen (EDGG) :
 
Turbulence forte
EDGG SIGMET 7 VALID 161400/161600 EDZF
EDGG LANGEN FIR SEV TURB FCST S OF N4900 SFC/FL060 STNR WKN=



MET'MAP, la Météo Aéronautique d'un coup d'oeil ! - Copyright ORBIFLY Décembre 2007 - Disclaimer

ORBIFLY MET'MAP TEAM :

Programmation & Développement : Alexandra Zaïnal
Conception & Développement : Baudouin d'Aumeries
Co-Programmation & Développement : Marc-Olivier Méhu
Soutien technique & logistique : Manuel Goepfert

Contact : metmap@orbifly.com




SOURCES & CREDITS :

   NOAA